createdAt,value
2018-07-02T00:00:50.614Z,12.30
2018-07-02T00:03:20.074Z,12.20
2018-07-02T00:07:05.030Z,12.10
2018-07-02T00:09:34.407Z,12.10
2018-07-02T00:12:03.748Z,12.00
2018-07-02T00:14:35.165Z,12.00
2018-07-02T00:17:04.600Z,11.70
2018-07-02T00:19:34.000Z,11.20
2018-07-02T00:22:03.313Z,11.40
2018-07-02T00:24:34.757Z,11.30
2018-07-02T00:27:04.120Z,11.00
2018-07-02T00:29:33.437Z,10.90
2018-07-02T00:32:02.943Z,11.10
2018-07-02T00:34:35.652Z,11.00
2018-07-02T00:37:05.061Z,11.20
2018-07-02T00:39:34.456Z,11.20
2018-07-02T00:42:03.781Z,11.10
2018-07-02T00:44:38.275Z,11.10
2018-07-02T00:47:07.680Z,11.10
2018-07-02T00:49:37.021Z,10.90
2018-07-02T00:52:06.359Z,11.00
2018-07-02T00:54:36.736Z,11.10
2018-07-02T00:57:06.113Z,11.10
2018-07-02T00:59:35.533Z,11.10
2018-07-02T01:02:04.984Z,11.10
2018-07-02T01:04:38.704Z,11.20
2018-07-02T01:07:09.603Z,11.20
2018-07-02T01:09:39.044Z,11.20
2018-07-02T01:12:08.404Z,11.10
2018-07-02T01:14:41.328Z,10.70
2018-07-02T01:17:10.705Z,10.80
2018-07-02T01:19:40.150Z,10.50
2018-07-02T01:25:56.308Z,10.40
2018-07-02T01:28:25.680Z,10.30
2018-07-02T01:30:55.060Z,10.10
2018-07-02T01:33:24.504Z,9.60
2018-07-02T01:35:53.817Z,9.50
2018-07-02T01:38:23.236Z,9.60
2018-07-02T01:40:52.627Z,9.80
2018-07-02T01:43:36.859Z,10.00
2018-07-02T01:46:06.184Z,10.10
2018-07-02T01:48:35.520Z,10.10
2018-07-02T01:51:04.901Z,10.10
2018-07-02T01:53:41.732Z,10.10
2018-07-02T01:56:11.087Z,10.10
2018-07-02T01:58:40.421Z,10.20
2018-07-02T02:01:09.772Z,10.00
2018-07-02T02:03:51.724Z,10.10
2018-07-02T02:06:21.088Z,9.90
2018-07-02T02:08:50.413Z,9.70
2018-07-02T02:11:19.753Z,9.80
2018-07-02T02:13:56.586Z,9.80
2018-07-02T02:16:25.930Z,9.90
2018-07-02T02:18:55.301Z,9.90
2018-07-02T02:21:24.748Z,9.80
2018-07-02T02:24:06.934Z,9.70
2018-07-02T02:26:36.285Z,9.50
2018-07-02T02:29:05.660Z,9.30
2018-07-02T02:31:34.792Z,9.10
2018-07-02T02:34:07.252Z,9.10
2018-07-02T02:36:36.646Z,9.00
2018-07-02T02:39:08.428Z,8.90
2018-07-02T02:41:37.835Z,9.00
2018-07-02T02:44:08.282Z,9.10
2018-07-02T02:46:37.668Z,9.10
2018-07-02T02:49:06.956Z,8.70
2018-07-02T02:51:36.368Z,8.70
2018-07-02T02:54:14.590Z,8.70
2018-07-02T02:56:43.948Z,8.80
2018-07-02T02:59:13.282Z,8.60
2018-07-02T03:01:42.652Z,8.50
2018-07-02T03:04:24.978Z,8.40
2018-07-02T03:06:54.041Z,8.50
2018-07-02T03:09:23.244Z,8.70
2018-07-02T03:11:52.616Z,8.60
2018-07-02T03:14:23.101Z,8.50
2018-07-02T03:16:52.656Z,8.70
2018-07-02T03:19:22.096Z,8.50
2018-07-02T03:21:51.489Z,8.40
2018-07-02T03:24:21.909Z,8.50
2018-07-02T03:26:51.358Z,8.20
2018-07-02T03:29:20.708Z,8.00
2018-07-02T03:31:50.025Z,8.30
2018-07-02T03:34:26.580Z,8.30
2018-07-02T03:36:56.022Z,8.40
2018-07-02T03:41:54.421Z,8.60
2018-07-02T03:44:25.860Z,8.60
2018-07-02T03:49:24.216Z,8.70
2018-07-02T03:51:53.569Z,8.50
2018-07-02T03:54:24.094Z,8.60
2018-07-02T03:56:53.540Z,8.50
2018-07-02T03:59:22.930Z,8.60
2018-07-02T04:01:52.261Z,8.40
2018-07-02T04:04:34.462Z,8.30
2018-07-02T04:07:03.833Z,8.30
2018-07-02T04:09:33.184Z,8.50
2018-07-02T04:12:02.712Z,8.50
2018-07-02T04:14:49.096Z,8.40
2018-07-02T04:17:18.488Z,8.30
2018-07-02T04:19:47.768Z,8.50
2018-07-02T04:22:17.109Z,8.80
2018-07-02T04:24:47.604Z,8.90
2018-07-02T04:27:16.970Z,9.00
2018-07-02T04:29:46.327Z,9.00
2018-07-02T04:32:15.707Z,8.90
2018-07-02T04:34:53.914Z,8.90
2018-07-02T04:37:23.294Z,8.90
2018-07-02T04:39:52.633Z,9.00
2018-07-02T04:42:22.025Z,9.10
2018-07-02T04:45:05.273Z,9.20
2018-07-02T04:47:34.591Z,9.20
2018-07-02T04:50:04.059Z,9.20
2018-07-02T04:52:33.577Z,9.30
2018-07-02T04:55:02.997Z,9.50
2018-07-02T04:57:32.401Z,9.60
2018-07-02T05:00:01.733Z,9.70
2018-07-02T05:02:31.067Z,9.70
2018-07-02T05:05:00.468Z,9.70
2018-07-02T05:07:30.260Z,9.80
2018-07-02T05:09:59.543Z,9.90
2018-07-02T05:12:31.784Z,10.00
2018-07-02T05:15:00.909Z,10.20
2018-07-02T05:17:30.142Z,10.40
2018-07-02T05:19:59.289Z,10.60
2018-07-02T05:22:28.407Z,10.70
2018-07-02T05:24:57.641Z,10.90
2018-07-02T05:27:26.981Z,10.90
2018-07-02T05:29:56.384Z,11.10
2018-07-02T05:32:25.860Z,11.30
2018-07-02T05:34:55.164Z,11.40
2018-07-02T05:37:24.545Z,11.60
2018-07-02T05:39:53.841Z,11.80
2018-07-02T05:42:23.191Z,12.00
2018-07-02T05:44:52.645Z,12.20
2018-07-02T05:47:22.092Z,12.40
2018-07-02T05:49:51.473Z,12.60
2018-07-02T05:52:20.979Z,12.70
2018-07-02T05:54:51.307Z,12.90
2018-07-02T05:57:20.687Z,13.00
2018-07-02T05:59:50.118Z,13.40
2018-07-02T06:02:19.517Z,13.40
2018-07-02T06:07:27.051Z,13.80
2018-07-02T06:09:56.442Z,14.10
2018-07-02T06:12:25.834Z,14.30
2018-07-02T06:14:55.201Z,14.50
2018-07-02T06:17:24.540Z,14.80
2018-07-02T06:19:54.026Z,15.00
2018-07-02T06:22:23.354Z,15.20
2018-07-02T06:24:52.778Z,15.40
2018-07-02T06:27:22.161Z,15.50
2018-07-02T06:29:51.549Z,15.80
2018-07-02T06:32:20.932Z,16.00
2018-07-02T06:34:54.167Z,16.10
2018-07-02T06:37:23.488Z,16.30
2018-07-02T06:39:52.837Z,16.50
2018-07-02T06:45:00.558Z,16.80
2018-07-02T06:47:29.893Z,17.00
2018-07-02T06:49:59.288Z,17.10
2018-07-02T06:52:36.497Z,17.20
2018-07-02T06:55:06.048Z,17.40
2018-07-02T06:57:35.452Z,17.50
2018-07-02T07:00:05.820Z,17.70
2018-07-02T07:02:35.189Z,17.70
2018-07-02T07:05:04.590Z,17.70
2018-07-02T07:07:33.964Z,17.80
2018-07-02T07:10:03.329Z,18.00
2018-07-02T07:12:58.824Z,18.10
2018-07-02T07:15:28.145Z,18.30
2018-07-02T07:17:57.466Z,18.30
2018-07-02T07:20:26.797Z,18.40
2018-07-02T07:23:04.057Z,18.50
2018-07-02T07:25:33.478Z,18.60
2018-07-02T07:28:02.929Z,18.80
2018-07-02T07:30:32.309Z,18.80
2018-07-02T07:33:08.869Z,19.00
2018-07-02T07:35:38.273Z,19.00
2018-07-02T07:38:07.665Z,19.10
2018-07-02T07:40:37.032Z,19.30
2018-07-02T07:43:06.412Z,19.10
2018-07-02T07:45:35.793Z,19.30
2018-07-02T07:48:05.369Z,19.40
2018-07-02T07:50:36.825Z,19.60
2018-07-02T07:53:08.249Z,19.70
2018-07-02T07:55:37.582Z,19.90
2018-07-02T07:58:06.940Z,20.30
2018-07-02T08:00:36.440Z,20.60
2018-07-02T08:03:09.480Z,21.00
2018-07-02T08:05:39.074Z,21.20
2018-07-02T08:08:08.488Z,21.30
2018-07-02T08:10:37.853Z,21.10
2018-07-02T08:13:07.325Z,21.50
2018-07-02T08:15:36.689Z,21.70
2018-07-02T08:18:06.116Z,21.50
2018-07-02T08:20:35.255Z,21.40
2018-07-02T08:23:22.542Z,21.40
2018-07-02T08:25:51.938Z,21.70
2018-07-02T08:28:21.256Z,22.10
2018-07-02T08:30:50.618Z,21.90
2018-07-02T08:33:30.173Z,21.80
2018-07-02T08:35:59.508Z,21.80
2018-07-02T08:38:28.860Z,22.20
2018-07-02T08:40:58.282Z,22.20
2018-07-02T08:43:30.271Z,22.20
2018-07-02T08:45:59.602Z,22.10
2018-07-02T08:48:28.990Z,22.40
2018-07-02T08:50:58.316Z,22.40
2018-07-02T08:53:28.646Z,22.40
2018-07-02T08:58:27.010Z,23.10
2018-07-02T09:00:56.328Z,23.20
2018-07-02T09:03:25.738Z,23.40
2018-07-02T09:05:55.072Z,23.50
2018-07-02T09:08:24.216Z,23.40
2018-07-02T09:10:53.526Z,23.30
2018-07-02T09:13:23.149Z,23.30
2018-07-02T09:15:52.360Z,23.40
2018-07-02T09:18:21.744Z,23.40
2018-07-02T09:20:51.114Z,23.50
2018-07-02T09:23:21.448Z,23.50
2018-07-02T09:25:50.805Z,23.60
2018-07-02T09:28:20.164Z,23.60
2018-07-02T09:30:49.561Z,23.80
2018-07-02T09:33:18.992Z,23.20
2018-07-02T09:35:48.469Z,23.60
2018-07-02T09:38:17.905Z,23.70
2018-07-02T09:40:47.313Z,23.90
2018-07-02T09:43:16.765Z,24.00
2018-07-02T09:45:46.202Z,24.30
2018-07-02T09:48:15.600Z,24.40
2018-07-02T09:50:44.992Z,24.40
2018-07-02T09:53:14.630Z,24.00
2018-07-02T09:55:43.891Z,24.20
2018-07-02T09:58:13.213Z,24.50
2018-07-02T10:00:42.704Z,24.90
2018-07-02T10:05:54.672Z,24.50
2018-07-02T10:08:24.047Z,24.70
2018-07-02T10:13:37.612Z,25.20
2018-07-02T10:16:07.089Z,25.20
2018-07-02T10:18:36.442Z,25.20
2018-07-02T10:23:37.337Z,25.40
2018-07-02T10:26:05.938Z,25.70
2018-07-02T10:28:35.074Z,25.50
2018-07-02T10:31:04.220Z,25.70
2018-07-02T10:33:35.369Z,26.20
2018-07-02T10:36:04.658Z,26.90
2018-07-02T10:38:34.121Z,27.20
2018-07-02T10:41:03.504Z,27.40
2018-07-02T10:43:36.566Z,26.70
2018-07-02T10:46:06.043Z,26.80
2018-07-02T10:48:35.806Z,26.70
2018-07-02T10:51:05.255Z,27.30
2018-07-02T10:54:02.449Z,26.20
2018-07-02T10:56:31.911Z,27.00
2018-07-02T10:59:01.216Z,27.30
2018-07-02T11:01:30.755Z,27.70
2018-07-02T11:04:24.139Z,27.80
2018-07-02T11:06:53.537Z,28.10
2018-07-02T11:09:22.905Z,28.20
2018-07-02T11:14:24.334Z,27.90
2018-07-02T11:16:53.772Z,26.80
2018-07-02T11:19:23.190Z,26.60
2018-07-02T11:21:52.608Z,26.50
2018-07-02T11:24:27.409Z,27.80
2018-07-02T11:27:04.369Z,28.50
2018-07-02T11:29:33.583Z,29.10
2018-07-02T11:32:02.689Z,29.30
2018-07-02T11:34:32.881Z,29.40
2018-07-02T11:37:02.253Z,29.10
2018-07-02T11:39:32.397Z,29.40
2018-07-02T11:42:01.785Z,29.80
2018-07-02T11:44:38.653Z,29.30
2018-07-02T11:47:08.021Z,29.10
2018-07-02T11:49:37.361Z,29.60
2018-07-02T11:52:06.813Z,29.60
2018-07-02T11:54:55.321Z,30.20
2018-07-02T11:57:24.855Z,30.60
2018-07-02T11:59:54.291Z,30.70
2018-07-02T12:04:52.696Z,31.40
2018-07-02T12:07:22.118Z,29.70
2018-07-02T12:09:51.575Z,30.00
2018-07-02T12:12:20.973Z,30.00
2018-07-02T12:14:52.388Z,30.90
2018-07-02T12:17:21.819Z,30.60
2018-07-02T12:19:51.313Z,30.80
2018-07-02T12:22:20.703Z,31.30
2018-07-02T12:24:54.628Z,31.70
2018-07-02T12:27:24.062Z,32.30
2018-07-02T12:29:53.549Z,32.50
2018-07-02T12:32:22.958Z,32.50
2018-07-02T12:37:21.442Z,32.90
2018-07-02T12:39:50.818Z,32.70
2018-07-02T12:42:20.148Z,32.70
2018-07-02T12:49:47.934Z,30.30
2018-07-02T12:54:53.646Z,32.30
2018-07-02T12:57:22.990Z,32.00
2018-07-02T12:59:52.305Z,31.70
2018-07-02T13:02:21.710Z,32.70
2018-07-02T13:04:55.553Z,33.40
2018-07-02T13:07:24.922Z,33.80
2018-07-02T13:09:54.347Z,34.60
2018-07-02T13:12:23.720Z,33.70
2018-07-02T13:17:22.109Z,33.30
2018-07-02T13:19:51.481Z,33.40
2018-07-02T13:25:26.695Z,34.00
2018-07-02T13:27:56.249Z,34.80
2018-07-02T13:30:25.677Z,34.90
2018-07-02T13:32:58.889Z,34.40
2018-07-02T13:40:26.496Z,32.60
2018-07-02T13:42:57.899Z,33.80
2018-07-02T13:45:27.226Z,34.20
2018-07-02T13:47:56.613Z,34.60
2018-07-02T13:50:26.061Z,34.10
2018-07-02T13:52:58.978Z,34.40
2018-07-02T13:55:28.522Z,34.40
2018-07-02T13:57:57.894Z,33.80
2018-07-02T14:00:27.238Z,33.30
2018-07-02T14:02:59.997Z,35.00
2018-07-02T14:05:29.489Z,35.40
2018-07-02T14:07:58.940Z,32.30
2018-07-02T14:10:28.334Z,31.80
2018-07-02T14:12:59.821Z,33.10
2018-07-02T14:15:29.199Z,34.30
2018-07-02T14:17:58.572Z,34.60
2018-07-02T14:20:27.974Z,35.50
2018-07-02T14:22:57.425Z,34.00
2018-07-02T14:25:26.910Z,33.50
2018-07-02T14:27:56.462Z,34.30
2018-07-02T14:30:25.945Z,36.10
2018-07-02T14:32:55.355Z,36.60
2018-07-02T14:35:24.396Z,36.80
2018-07-02T14:38:00.846Z,36.50
2018-07-02T14:40:29.928Z,36.00
2018-07-02T14:42:59.370Z,36.30
2018-07-02T14:45:28.887Z,36.20
2018-07-02T14:47:58.098Z,36.70
2018-07-02T14:50:27.438Z,36.70
2018-07-02T14:53:01.949Z,36.30
2018-07-02T14:55:31.422Z,36.20
2018-07-02T14:58:00.775Z,36.60
2018-07-02T15:00:30.167Z,36.30
2018-07-02T15:03:07.521Z,32.80
2018-07-02T15:08:06.390Z,31.40
2018-07-02T15:10:35.843Z,32.00
2018-07-02T15:13:10.833Z,32.50
2018-07-02T15:15:40.229Z,34.40
2018-07-02T15:18:09.754Z,35.20
2018-07-02T15:20:39.122Z,36.00
2018-07-02T15:23:13.364Z,36.30
2018-07-02T15:25:42.757Z,35.70
2018-07-02T15:28:12.346Z,35.90
2018-07-02T15:30:41.818Z,36.10
2018-07-02T15:33:15.292Z,35.50
2018-07-02T15:35:44.635Z,35.40
2018-07-02T15:38:14.003Z,34.70
2018-07-02T15:40:43.337Z,34.90
2018-07-02T15:43:12.803Z,34.50
2018-07-02T15:45:42.226Z,34.70
2018-07-02T15:48:18.844Z,34.50
2018-07-02T15:50:48.026Z,33.70
2018-07-02T15:53:17.417Z,34.10
2018-07-02T15:55:46.895Z,34.00
2018-07-02T15:58:16.248Z,34.30
2018-07-02T16:00:45.633Z,34.70
2018-07-02T16:03:23.380Z,34.70
2018-07-02T16:05:52.734Z,33.10
2018-07-02T16:08:22.045Z,33.30
2018-07-02T16:10:51.397Z,33.50
2018-07-02T16:13:20.927Z,33.70
2018-07-02T16:15:50.314Z,33.30
2018-07-02T16:18:19.602Z,33.80
2018-07-02T16:20:49.043Z,33.30
2018-07-02T16:23:26.390Z,32.50
2018-07-02T16:25:55.735Z,32.70
2018-07-02T16:28:25.114Z,33.70
2018-07-02T16:30:54.550Z,32.70
2018-07-02T16:33:25.897Z,33.40
2018-07-02T16:35:55.259Z,33.60
2018-07-02T16:38:24.689Z,33.10
2018-07-02T16:40:54.059Z,33.30
2018-07-02T16:44:24.029Z,32.80
2018-07-02T16:46:53.514Z,33.20
2018-07-02T16:49:22.960Z,33.20
2018-07-02T16:51:52.321Z,33.20
2018-07-02T16:54:29.013Z,32.90
2018-07-02T16:56:58.388Z,32.90
2018-07-02T16:59:27.754Z,32.10
2018-07-02T17:01:57.087Z,31.40
2018-07-02T17:04:27.351Z,30.60
2018-07-02T17:09:25.701Z,29.40
2018-07-02T17:11:55.075Z,28.80
2018-07-02T17:14:42.647Z,28.30
2018-07-02T17:17:12.033Z,27.80
2018-07-02T17:19:42.693Z,27.40
2018-07-02T17:22:12.066Z,26.90
2018-07-02T17:24:42.530Z,26.80
2018-07-02T17:27:11.949Z,26.60
2018-07-02T17:29:41.263Z,26.40
2018-07-02T17:32:10.633Z,26.00
2018-07-02T17:37:11.122Z,25.70
2018-07-02T17:39:40.471Z,25.60
2018-07-02T17:42:09.787Z,25.30
2018-07-02T17:44:39.250Z,25.30
2018-07-02T17:47:08.557Z,25.20
2018-07-02T17:49:37.862Z,25.10
2018-07-02T17:52:07.322Z,25.00
2018-07-02T17:54:41.700Z,24.80
2018-07-02T17:57:11.054Z,24.70
2018-07-02T17:59:40.325Z,24.60
2018-07-02T18:02:09.650Z,24.50
2018-07-02T18:04:44.658Z,24.40
2018-07-02T18:07:14.029Z,24.20
2018-07-02T18:09:43.426Z,24.20
2018-07-02T18:12:12.817Z,24.20
2018-07-02T18:14:42.080Z,24.10
2018-07-02T18:17:11.489Z,24.00
2018-07-02T18:19:40.923Z,23.90
2018-07-02T18:22:10.339Z,23.80
2018-07-02T18:24:40.832Z,23.70
2018-07-02T18:27:10.169Z,23.70
2018-07-02T18:29:39.562Z,23.50
2018-07-02T18:32:09.339Z,23.50
2018-07-02T18:34:39.024Z,23.40
2018-07-02T18:37:08.542Z,23.40
2018-07-02T18:39:37.902Z,23.30
2018-07-02T18:42:07.482Z,23.20
2018-07-02T18:44:37.806Z,23.10
2018-07-02T18:47:07.314Z,23.10
2018-07-02T18:49:36.631Z,23.00
2018-07-02T18:52:06.018Z,22.90
2018-07-02T18:54:37.454Z,23.00
2018-07-02T18:57:07.340Z,22.80
2018-07-02T18:59:36.699Z,22.70
2018-07-02T19:02:06.142Z,22.60
2018-07-02T19:04:36.558Z,22.50
2018-07-02T19:07:05.929Z,22.50
2018-07-02T19:09:35.376Z,22.30
2018-07-02T19:12:04.734Z,22.30
2018-07-02T19:17:04.242Z,22.10
2018-07-02T19:19:33.592Z,21.90
2018-07-02T19:22:02.897Z,21.90
2018-07-02T19:27:04.429Z,21.60
2018-07-02T19:29:33.910Z,21.30
2018-07-02T19:32:03.184Z,21.20
2018-07-02T19:34:33.637Z,21.20
2018-07-02T19:37:02.965Z,21.00
2018-07-02T19:39:32.321Z,21.10
2018-07-02T19:42:01.783Z,21.00
2018-07-02T19:44:34.953Z,20.80
2018-07-02T19:47:04.345Z,20.70
2018-07-02T19:49:33.728Z,20.50
2018-07-02T19:52:03.121Z,20.30
2018-07-02T19:54:44.414Z,20.20
2018-07-02T19:57:13.846Z,20.00
2018-07-02T19:59:43.152Z,19.70
2018-07-02T20:02:12.546Z,19.60
2018-07-02T20:04:55.670Z,19.40
2018-07-02T20:07:25.059Z,19.00
2018-07-02T20:09:54.457Z,19.00
2018-07-02T20:12:23.898Z,18.70
2018-07-02T20:14:53.262Z,18.70
2018-07-02T20:17:22.408Z,18.60
2018-07-02T20:19:51.502Z,18.60
2018-07-02T20:22:20.605Z,18.40
2018-07-02T20:24:49.748Z,18.30
2018-07-02T20:27:18.816Z,18.30
2018-07-02T20:29:47.909Z,17.90
2018-07-02T20:32:17.053Z,17.60
2018-07-02T20:34:47.300Z,17.60
2018-07-02T20:37:16.697Z,17.60
2018-07-02T20:39:46.050Z,17.20
2018-07-02T20:42:15.381Z,16.80
2018-07-02T20:45:09.350Z,16.70
2018-07-02T20:47:38.654Z,16.70
2018-07-02T20:50:08.237Z,16.60
2018-07-02T20:55:11.335Z,16.70
2018-07-02T20:57:40.749Z,16.60
2018-07-02T21:00:10.123Z,16.60
2018-07-02T21:02:52.230Z,16.50
2018-07-02T21:05:21.609Z,16.10
2018-07-02T21:07:50.958Z,15.80
2018-07-02T21:10:20.416Z,16.00
2018-07-02T21:12:51.720Z,16.00
2018-07-02T21:15:21.142Z,15.90
2018-07-02T21:17:50.530Z,16.00
2018-07-02T21:20:19.872Z,16.00
2018-07-02T21:23:01.349Z,15.80
2018-07-02T21:25:31.591Z,15.70
2018-07-02T21:28:00.893Z,15.60
2018-07-02T21:30:30.226Z,15.30
2018-07-02T21:32:59.654Z,15.30
2018-07-02T21:35:29.094Z,15.30
2018-07-02T21:37:58.374Z,15.20
2018-07-02T21:40:27.763Z,15.20
2018-07-02T21:43:13.845Z,15.20
2018-07-02T21:45:43.239Z,15.10
2018-07-02T21:48:12.570Z,15.00
2018-07-02T21:50:41.925Z,14.90
2018-07-02T21:53:12.402Z,14.80
2018-07-02T21:55:41.762Z,14.90
2018-07-02T21:58:11.169Z,14.60
2018-07-02T22:00:43.970Z,14.60
2018-07-02T22:05:44.473Z,14.50
2018-07-02T22:08:13.765Z,14.30
2018-07-02T22:10:43.077Z,14.20
2018-07-02T22:13:25.402Z,14.00
2018-07-02T22:15:54.794Z,14.10
2018-07-02T22:20:53.265Z,13.70
2018-07-02T22:23:30.217Z,13.40
2018-07-02T22:25:59.630Z,13.30
2018-07-02T22:28:29.062Z,13.40
2018-07-02T22:30:58.387Z,13.50
2018-07-02T22:33:27.826Z,13.50
2018-07-02T22:35:57.126Z,13.40
2018-07-02T22:38:26.474Z,13.40
2018-07-02T22:40:55.798Z,13.20
2018-07-02T22:43:26.269Z,13.30
2018-07-02T22:45:55.471Z,13.30
2018-07-02T22:48:24.822Z,13.30
2018-07-02T22:50:54.169Z,13.40
2018-07-02T22:53:28.027Z,13.10
2018-07-02T22:56:02.995Z,13.30
2018-07-02T22:58:32.297Z,13.10
2018-07-02T23:01:02.086Z,13.00
2018-07-02T23:03:31.466Z,13.00
2018-07-02T23:06:00.857Z,12.90
2018-07-02T23:08:30.221Z,13.10
2018-07-02T23:10:59.529Z,13.10
2018-07-02T23:13:36.662Z,12.90
2018-07-02T23:16:09.221Z,12.90
2018-07-02T23:18:38.545Z,12.90
2018-07-02T23:21:07.942Z,12.80
2018-07-02T23:23:39.374Z,12.90
2018-07-02T23:26:08.689Z,12.90
2018-07-02T23:28:38.087Z,12.80
2018-07-02T23:31:07.449Z,12.50
2018-07-02T23:33:38.853Z,12.50
2018-07-02T23:36:08.138Z,12.60
2018-07-02T23:38:37.478Z,12.60
2018-07-02T23:41:06.845Z,12.60
2018-07-02T23:43:36.302Z,12.30
2018-07-02T23:46:05.719Z,12.30
2018-07-02T23:48:35.042Z,12.20
2018-07-02T23:51:04.434Z,12.20
2018-07-02T23:53:55.725Z,12.20
2018-07-02T23:56:25.046Z,12.20
2018-07-02T23:58:54.372Z,12.20
